Eland, WI (54427)

2:50 AM CST on February 09, 2016 (GMT -0600)
Weston Weather Station | | Change Station
CLOSE
Current Station
Personal Weather Station
Location: Weston, WI
Elevation: 1214 ft
Nearby Weather Stations

Elev 1214 ft 44.91 °N, 89.55 °W | Updated 14 minutes ago

Snow
Snow
7.7 °F
Feels Like 8 °F
N
2.2
Wind Variable Wind from WNW

Today
High -- | Low -- °F
--% Chance of Precip.
Yesterday
High -- | Low -- °F
Precip. -- in
Pressure 29.84 in
Visibility 7.0 miles
Clouds Overcast 3600 ft
Windchill 8 °F
Dew Point 4 °F
Humidity 86%
Rainfall 0.00 in
Snow Depth Not available.
7:06 AM 5:16 PM
New Moon, 1% visible
METAR KAUW 090754Z AUTO 31008KT 7SM -SN OVC036 M12/M16 A2976 RMK AO2 SNB01 SLP104 P0000 T11221161
Pressure 29.84 in
Visibility 7.0 miles
Clouds Overcast 3600 ft
Windchill 8 °F
Dew Point 4 °F
Humidity 86%
Rainfall 0.00 in
Snow Depth Not available.
7:06 AM 5:16 PM
New Moon, 1% visible
METAR KAUW 090754Z AUTO 31008KT 7SM -SN OVC036 M12/M16 A2976 RMK AO2 SNB01 SLP104 P0000 T11221161

10-Day Weather Forecast

Almanac

Astronomy

Feb. 09, 2016 Rise Set
Actual Time
Civil Twilight
Nautical Twilight
Astronomical Twilight
Moon
Length of Visible Light
Length of Day
Tomorrow will be .
, % of the Moon is Illuminated

Today's Extremes

State Highs State Lows

Community

WunderPhotos

Upload Photos

1,891,571 photos uploaded!

WunderBlog® & News

Nearby

Air Quality

  Air Quality AQ Index Pollutant
Not available.

Snow Depth

Station Depth Elevation

Earthquake Activity

City Distance Mag. Time & Date
Minimum magnitude displayed is 2.5.

Coastal Water Temperatures

Place Temperature

Stations

Nearby Weather Stations

Station Location Temp. Windchill Dew Point Humidity Wind Precip. Elev Updated Type
                   

Watches & Warnings

There are currently no watches in effect.